sensor_id;sensor_type;location;lat;lon;timestamp;temperature;humidity
484;DHT22;228;48.922;12.198;2022-12-18T00:01:18;-0.30;71.40
484;DHT22;228;48.922;12.198;2022-12-18T00:03:55;-0.40;71.60
484;DHT22;228;48.922;12.198;2022-12-18T00:06:24;-0.80;72.20
484;DHT22;228;48.922;12.198;2022-12-18T00:08:50;-0.80;74.00
484;DHT22;228;48.922;12.198;2022-12-18T00:11:19;-0.70;73.00
484;DHT22;228;48.922;12.198;2022-12-18T00:13:46;-0.80;73.20
484;DHT22;228;48.922;12.198;2022-12-18T00:16:23;-1.10;73.20
484;DHT22;228;48.922;12.198;2022-12-18T00:18:52;-1.20;75.30
484;DHT22;228;48.922;12.198;2022-12-18T00:21:20;-1.10;75.20
484;DHT22;228;48.922;12.198;2022-12-18T00:23:47;-0.80;73.70
484;DHT22;228;48.922;12.198;2022-12-18T00:26:17;-0.90;76.10
484;DHT22;228;48.922;12.198;2022-12-18T00:28:51;-0.90;74.30
484;DHT22;228;48.922;12.198;2022-12-18T00:31:20;-0.60;73.90
484;DHT22;228;48.922;12.198;2022-12-18T00:33:48;-0.30;73.30
484;DHT22;228;48.922;12.198;2022-12-18T00:36:17;-0.20;71.80
484;DHT22;228;48.922;12.198;2022-12-18T00:38:45;0.20;70.80
484;DHT22;228;48.922;12.198;2022-12-18T00:41:14;-0.40;71.70
484;DHT22;228;48.922;12.198;2022-12-18T00:44:01;-0.60;72.10
484;DHT22;228;48.922;12.198;2022-12-18T00:46:27;-1.10;74.10
484;DHT22;228;48.922;12.198;2022-12-18T00:48:53;-1.30;74.80
484;DHT22;228;48.922;12.198;2022-12-18T00:51:19;-0.80;75.10
484;DHT22;228;48.922;12.198;2022-12-18T00:53:45;-0.90;74.10
484;DHT22;228;48.922;12.198;2022-12-18T00:56:11;-0.60;73.90
484;DHT22;228;48.922;12.198;2022-12-18T00:58:37;-0.70;73.30
484;DHT22;228;48.922;12.198;2022-12-18T01:01:04;-0.50;72.70
484;DHT22;228;48.922;12.198;2022-12-18T01:03:33;-0.70;73.20
484;DHT22;228;48.922;12.198;2022-12-18T01:06:06;-0.40;73.20
484;DHT22;228;48.922;12.198;2022-12-18T01:08:33;0.00;71.50
484;DHT22;228;48.922;12.198;2022-12-18T01:10:59;-0.30;71.00
484;DHT22;228;48.922;12.198;2022-12-18T01:13:25;-0.20;71.40
484;DHT22;228;48.922;12.198;2022-12-18T01:15:51;-0.40;72.20
484;DHT22;228;48.922;12.198;2022-12-18T01:18:17;-0.50;72.10
484;DHT22;228;48.922;12.198;2022-12-18T01:20:43;-0.60;72.30
484;DHT22;228;48.922;12.198;2022-12-18T01:23:09;-0.90;72.80
484;DHT22;228;48.922;12.198;2022-12-18T01:25:36;-0.70;73.20
484;DHT22;228;48.922;12.198;2022-12-18T01:28:03;-1.30;74.50
484;DHT22;228;48.922;12.198;2022-12-18T01:30:31;-1.30;75.40
484;DHT22;228;48.922;12.198;2022-12-18T01:32:57;-1.50;76.20
484;DHT22;228;48.922;12.198;2022-12-18T01:35:24;-1.10;76.30
484;DHT22;228;48.922;12.198;2022-12-18T01:37:54;-0.70;73.90
484;DHT22;228;48.922;12.198;2022-12-18T01:40:20;-1.10;73.90
484;DHT22;228;48.922;12.198;2022-12-18T01:42:51;-1.40;75.00
484;DHT22;228;48.922;12.198;2022-12-18T01:47:47;-1.40;75.70
484;DHT22;228;48.922;12.198;2022-12-18T01:50:34;-1.20;76.20
484;DHT22;228;48.922;12.198;2022-12-18T01:55:47;-0.50;73.50
484;DHT22;228;48.922;12.198;2022-12-18T01:58:15;-0.90;73.40
484;DHT22;228;48.922;12.198;2022-12-18T02:00:42;-1.00;74.70
484;DHT22;228;48.922;12.198;2022-12-18T02:03:08;-0.70;74.60
484;DHT22;228;48.922;12.198;2022-12-18T02:05:37;-0.40;73.30
484;DHT22;228;48.922;12.198;2022-12-18T02:08:33;-0.10;71.90
484;DHT22;228;48.922;12.198;2022-12-18T02:11:15;-0.50;71.90
484;DHT22;228;48.922;12.198;2022-12-18T02:14:37;-0.70;73.00
484;DHT22;228;48.922;12.198;2022-12-18T02:22:29;-0.20;72.20
484;DHT22;228;48.922;12.198;2022-12-18T02:28:16;-0.20;71.70
484;DHT22;228;48.922;12.198;2022-12-18T02:30:48;0.00;71.50
484;DHT22;228;48.922;12.198;2022-12-18T02:33:15;0.10;71.10
484;DHT22;228;48.922;12.198;2022-12-18T02:35:44;0.00;70.40
484;DHT22;228;48.922;12.198;2022-12-18T02:38:12;-0.20;71.90
484;DHT22;228;48.922;12.198;2022-12-18T02:40:40;0.20;71.30
484;DHT22;228;48.922;12.198;2022-12-18T02:43:13;0.20;69.50
484;DHT22;228;48.922;12.198;2022-12-18T02:45:48;0.00;70.30
484;DHT22;228;48.922;12.198;2022-12-18T02:48:18;0.00;72.10
484;DHT22;228;48.922;12.198;2022-12-18T02:54:32;0.30;70.40
484;DHT22;228;48.922;12.198;2022-12-18T02:57:18;0.10;70.40
484;DHT22;228;48.922;12.198;2022-12-18T03:00:08;-0.20;71.20
484;DHT22;228;48.922;12.198;2022-12-18T03:05:45;0.20;70.70
484;DHT22;228;48.922;12.198;2022-12-18T03:08:24;0.20;70.50
484;DHT22;228;48.922;12.198;2022-12-18T03:11:01;0.00;70.30
484;DHT22;228;48.922;12.198;2022-12-18T03:13:39;0.10;70.80
484;DHT22;228;48.922;12.198;2022-12-18T03:16:24;-0.20;70.40
484;DHT22;228;48.922;12.198;2022-12-18T03:18:59;-0.50;72.10
484;DHT22;228;48.922;12.198;2022-12-18T03:21:40;-0.60;72.90
484;DHT22;228;48.922;12.198;2022-12-18T03:24:09;-0.90;73.60
484;DHT22;228;48.922;12.198;2022-12-18T03:26:41;-0.80;74.60
484;DHT22;228;48.922;12.198;2022-12-18T03:29:36;-0.80;74.20
484;DHT22;228;48.922;12.198;2022-12-18T03:32:09;-0.40;73.70
484;DHT22;228;48.922;12.198;2022-12-18T03:34:39;-0.10;73.00
484;DHT22;228;48.922;12.198;2022-12-18T03:37:10;0.20;71.60
484;DHT22;228;48.922;12.198;2022-12-18T03:39:36;0.10;71.80
484;DHT22;228;48.922;12.198;2022-12-18T03:42:26;0.30;70.80
484;DHT22;228;48.922;12.198;2022-12-18T03:45:13;0.10;71.20
484;DHT22;228;48.922;12.198;2022-12-18T03:48:06;0.40;70.60
484;DHT22;228;48.922;12.198;2022-12-18T03:51:02;0.40;70.40
484;DHT22;228;48.922;12.198;2022-12-18T03:53:42;0.70;69.60
484;DHT22;228;48.922;12.198;2022-12-18T03:56:14;0.70;68.30
484;DHT22;228;48.922;12.198;2022-12-18T03:58:43;0.40;69.00
484;DHT22;228;48.922;12.198;2022-12-18T04:01:30;0.20;70.70
484;DHT22;228;48.922;12.198;2022-12-18T04:04:00;0.60;69.60
484;DHT22;228;48.922;12.198;2022-12-18T04:06:29;0.70;68.20
484;DHT22;228;48.922;12.198;2022-12-18T04:08:57;0.60;68.90
484;DHT22;228;48.922;12.198;2022-12-18T04:11:25;0.20;69.30
484;DHT22;228;48.922;12.198;2022-12-18T04:13:56;-0.50;71.90
484;DHT22;228;48.922;12.198;2022-12-18T04:16:27;-0.10;72.80
484;DHT22;228;48.922;12.198;2022-12-18T04:18:56;-0.20;71.70
484;DHT22;228;48.922;12.198;2022-12-18T04:21:24;-0.20;71.90
484;DHT22;228;48.922;12.198;2022-12-18T04:23:51;-0.50;72.80
484;DHT22;228;48.922;12.198;2022-12-18T04:26:20;-0.90;73.40
484;DHT22;228;48.922;12.198;2022-12-18T04:29:08;-1.40;76.20
484;DHT22;228;48.922;12.198;2022-12-18T04:31:35;-0.90;75.70
484;DHT22;228;48.922;12.198;2022-12-18T04:34:02;-0.70;74.50
484;DHT22;228;48.922;12.198;2022-12-18T04:36:32;-0.70;74.40
484;DHT22;228;48.922;12.198;2022-12-18T04:38:58;-0.20;73.40
484;DHT22;228;48.922;12.198;2022-12-18T04:41:25;-0.30;71.50
484;DHT22;228;48.922;12.198;2022-12-18T04:43:52;-0.70;72.90
484;DHT22;228;48.922;12.198;2022-12-18T04:46:18;-0.60;73.40
484;DHT22;228;48.922;12.198;2022-12-18T04:48:46;-0.60;72.60
484;DHT22;228;48.922;12.198;2022-12-18T04:51:12;-0.70;72.90
484;DHT22;228;48.922;12.198;2022-12-18T04:53:38;-0.40;72.60
484;DHT22;228;48.922;12.198;2022-12-18T04:56:11;-0.50;72.40
484;DHT22;228;48.922;12.198;2022-12-18T04:58:39;-0.40;72.40
484;DHT22;228;48.922;12.198;2022-12-18T05:01:07;-0.80;73.40
484;DHT22;228;48.922;12.198;2022-12-18T05:03:34;-0.80;73.20
484;DHT22;228;48.922;12.198;2022-12-18T05:06:01;-1.00;74.10
484;DHT22;228;48.922;12.198;2022-12-18T05:08:27;-1.10;74.90
484;DHT22;228;48.922;12.198;2022-12-18T05:11:04;-0.80;74.10
484;DHT22;228;48.922;12.198;2022-12-18T05:13:32;-1.00;73.50
484;DHT22;228;48.922;12.198;2022-12-18T05:15:59;-1.40;75.00
484;DHT22;228;48.922;12.198;2022-12-18T05:18:25;-1.50;76.30
484;DHT22;228;48.922;12.198;2022-12-18T05:20:53;-1.30;76.50
484;DHT22;228;48.922;12.198;2022-12-18T05:23:20;-1.00;75.00
484;DHT22;228;48.922;12.198;2022-12-18T05:26:02;-0.80;74.20
484;DHT22;228;48.922;12.198;2022-12-18T05:28:31;-0.50;73.20
484;DHT22;228;48.922;12.198;2022-12-18T05:31:00;-0.70;72.90
484;DHT22;228;48.922;12.198;2022-12-18T05:33:30;-1.00;73.50
484;DHT22;228;48.922;12.198;2022-12-18T05:35:59;-1.10;74.60
484;DHT22;228;48.922;12.198;2022-12-18T05:38:27;-1.20;74.90
484;DHT22;228;48.922;12.198;2022-12-18T05:40:55;-1.40;76.20
484;DHT22;228;48.922;12.198;2022-12-18T05:43:22;-1.20;75.90
484;DHT22;228;48.922;12.198;2022-12-18T05:45:50;-1.10;75.10
484;DHT22;228;48.922;12.198;2022-12-18T05:48:16;-1.10;74.70
484;DHT22;228;48.922;12.198;2022-12-18T05:50:44;-1.40;74.90
484;DHT22;228;48.922;12.198;2022-12-18T05:53:13;-1.60;76.60
484;DHT22;228;48.922;12.198;2022-12-18T05:55:41;-1.70;77.10
484;DHT22;228;48.922;12.198;2022-12-18T05:58:09;-1.50;76.80
484;DHT22;228;48.922;12.198;2022-12-18T06:00:39;-1.40;76.40
484;DHT22;228;48.922;12.198;2022-12-18T06:03:10;-1.60;76.20
484;DHT22;228;48.922;12.198;2022-12-18T06:05:44;-2.00;77.80
484;DHT22;228;48.922;12.198;2022-12-18T06:08:12;-1.90;78.00
484;DHT22;228;48.922;12.198;2022-12-18T06:10:40;-1.80;78.10
484;DHT22;228;48.922;12.198;2022-12-18T06:13:07;-1.50;76.70
484;DHT22;228;48.922;12.198;2022-12-18T06:15:36;-1.40;76.40
484;DHT22;228;48.922;12.198;2022-12-18T06:18:03;-1.10;75.60
484;DHT22;228;48.922;12.198;2022-12-18T06:20:31;-1.20;74.50
484;DHT22;228;48.922;12.198;2022-12-18T06:22:57;-1.40;75.20
484;DHT22;228;48.922;12.198;2022-12-18T06:25:24;-1.50;75.90
484;DHT22;228;48.922;12.198;2022-12-18T06:27:51;-1.60;76.10
484;DHT22;228;48.922;12.198;2022-12-18T06:30:17;-1.70;76.60
484;DHT22;228;48.922;12.198;2022-12-18T06:32:43;-1.30;75.90
484;DHT22;228;48.922;12.198;2022-12-18T06:35:10;-1.30;75.60
484;DHT22;228;48.922;12.198;2022-12-18T06:37:41;-1.20;75.10
484;DHT22;228;48.922;12.198;2022-12-18T06:40:38;-1.30;74.60
484;DHT22;228;48.922;12.198;2022-12-18T06:43:05;-1.30;75.30
484;DHT22;228;48.922;12.198;2022-12-18T06:45:31;-1.20;75.60
484;DHT22;228;48.922;12.198;2022-12-18T06:47:57;-1.10;74.60
484;DHT22;228;48.922;12.198;2022-12-18T06:50:23;-1.10;74.10
484;DHT22;228;48.922;12.198;2022-12-18T06:52:49;-1.30;74.60
484;DHT22;228;48.922;12.198;2022-12-18T06:55:16;-1.10;74.90
484;DHT22;228;48.922;12.198;2022-12-18T06:57:42;-1.30;74.40
484;DHT22;228;48.922;12.198;2022-12-18T07:00:08;-1.00;75.00
484;DHT22;228;48.922;12.198;2022-12-18T07:02:35;-0.60;73.70
484;DHT22;228;48.922;12.198;2022-12-18T07:05:01;-0.80;73.60
484;DHT22;228;48.922;12.198;2022-12-18T07:07:27;-1.00;73.90
484;DHT22;228;48.922;12.198;2022-12-18T07:09:53;-0.90;73.40
484;DHT22;228;48.922;12.198;2022-12-18T07:12:19;-1.00;73.60
484;DHT22;228;48.922;12.198;2022-12-18T07:14:45;-1.10;74.30
484;DHT22;228;48.922;12.198;2022-12-18T07:17:11;-1.00;74.10
484;DHT22;228;48.922;12.198;2022-12-18T07:19:38;-1.10;75.20
484;DHT22;228;48.922;12.198;2022-12-18T07:22:03;-1.00;74.30
484;DHT22;228;48.922;12.198;2022-12-18T07:24:29;-1.00;73.80
484;DHT22;228;48.922;12.198;2022-12-18T07:26:56;-1.20;73.90
484;DHT22;228;48.922;12.198;2022-12-18T07:29:22;-1.30;74.40
484;DHT22;228;48.922;12.198;2022-12-18T07:31:48;-1.60;75.60
484;DHT22;228;48.922;12.198;2022-12-18T07:34:15;-1.50;75.60
484;DHT22;228;48.922;12.198;2022-12-18T07:36:41;-1.00;75.50
484;DHT22;228;48.922;12.198;2022-12-18T07:39:08;-1.00;73.70
484;DHT22;228;48.922;12.198;2022-12-18T07:41:40;-1.20;74.20
484;DHT22;228;48.922;12.198;2022-12-18T07:47:09;-1.90;75.60
484;DHT22;228;48.922;12.198;2022-12-18T07:49:36;-1.50;76.00
484;DHT22;228;48.922;12.198;2022-12-18T07:52:06;-1.60;75.00
484;DHT22;228;48.922;12.198;2022-12-18T07:54:34;-1.80;76.00
484;DHT22;228;48.922;12.198;2022-12-18T07:57:00;-1.40;75.70
484;DHT22;228;48.922;12.198;2022-12-18T07:59:26;-1.30;75.10
484;DHT22;228;48.922;12.198;2022-12-18T08:01:52;-1.10;74.20
484;DHT22;228;48.922;12.198;2022-12-18T08:04:18;-0.80;74.20
484;DHT22;228;48.922;12.198;2022-12-18T08:06:44;-0.50;72.60
484;DHT22;228;48.922;12.198;2022-12-18T08:09:10;-0.50;71.80
484;DHT22;228;48.922;12.198;2022-12-18T08:11:36;-0.60;71.70
484;DHT22;228;48.922;12.198;2022-12-18T08:14:02;0.10;71.40
484;DHT22;228;48.922;12.198;2022-12-18T08:16:28;-0.20;69.80
484;DHT22;228;48.922;12.198;2022-12-18T08:18:55;-0.50;71.10
484;DHT22;228;48.922;12.198;2022-12-18T08:21:24;-0.30;71.90
484;DHT22;228;48.922;12.198;2022-12-18T08:23:56;-0.40;70.60
484;DHT22;228;48.922;12.198;2022-12-18T08:26:25;0.10;70.50
484;DHT22;228;48.922;12.198;2022-12-18T08:28:54;0.20;69.30
484;DHT22;228;48.922;12.198;2022-12-18T08:31:22;-0.20;70.30
484;DHT22;228;48.922;12.198;2022-12-18T08:33:49;0.00;70.80
484;DHT22;228;48.922;12.198;2022-12-18T08:36:17;0.00;69.30
484;DHT22;228;48.922;12.198;2022-12-18T08:38:43;0.00;69.80
484;DHT22;228;48.922;12.198;2022-12-18T08:41:11;-0.20;69.50
484;DHT22;228;48.922;12.198;2022-12-18T08:43:38;-0.50;70.50
484;DHT22;228;48.922;12.198;2022-12-18T08:46:24;-0.20;71.50
484;DHT22;228;48.922;12.198;2022-12-18T08:48:52;-0.40;69.80
484;DHT22;228;48.922;12.198;2022-12-18T08:51:19;-0.60;71.10
484;DHT22;228;48.922;12.198;2022-12-18T08:53:46;-0.10;70.60
484;DHT22;228;48.922;12.198;2022-12-18T08:56:13;0.20;68.50
484;DHT22;228;48.922;12.198;2022-12-18T08:58:40;0.10;68.70
484;DHT22;228;48.922;12.198;2022-12-18T09:01:09;0.10;67.60
484;DHT22;228;48.922;12.198;2022-12-18T09:03:36;0.00;68.50
484;DHT22;228;48.922;12.198;2022-12-18T09:06:02;0.20;68.90
484;DHT22;228;48.922;12.198;2022-12-18T09:08:29;-0.10;67.50
484;DHT22;228;48.922;12.198;2022-12-18T09:10:55;0.20;68.70
484;DHT22;228;48.922;12.198;2022-12-18T09:13:22;0.40;68.10
484;DHT22;228;48.922;12.198;2022-12-18T09:15:52;0.50;68.00
484;DHT22;228;48.922;12.198;2022-12-18T09:18:21;0.30;66.60
484;DHT22;228;48.922;12.198;2022-12-18T09:20:48;0.20;67.80
484;DHT22;228;48.922;12.198;2022-12-18T09:23:15;-0.20;68.20
484;DHT22;228;48.922;12.198;2022-12-18T09:25:41;-0.10;68.70
484;DHT22;228;48.922;12.198;2022-12-18T09:28:15;0.20;68.30
484;DHT22;228;48.922;12.198;2022-12-18T09:30:48;-0.70;68.80
484;DHT22;228;48.922;12.198;2022-12-18T09:33:15;-1.00;70.10
484;DHT22;228;48.922;12.198;2022-12-18T09:35:43;-0.80;70.70
484;DHT22;228;48.922;12.198;2022-12-18T09:38:17;-0.50;69.80
484;DHT22;228;48.922;12.198;2022-12-18T09:40:53;-0.60;69.90
484;DHT22;228;48.922;12.198;2022-12-18T09:43:31;-0.50;70.00
484;DHT22;228;48.922;12.198;2022-12-18T09:46:06;0.20;67.80
484;DHT22;228;48.922;12.198;2022-12-18T09:48:42;0.70;66.30
484;DHT22;228;48.922;12.198;2022-12-18T09:51:15;1.10;64.70
484;DHT22;228;48.922;12.198;2022-12-18T09:53:49;0.90;65.00
484;DHT22;228;48.922;12.198;2022-12-18T09:56:19;0.50;65.10
484;DHT22;228;48.922;12.198;2022-12-18T09:58:59;0.40;66.10
484;DHT22;228;48.922;12.198;2022-12-18T10:01:27;0.80;65.60
484;DHT22;228;48.922;12.198;2022-12-18T10:03:55;0.80;64.90
484;DHT22;228;48.922;12.198;2022-12-18T10:06:32;0.70;65.40
484;DHT22;228;48.922;12.198;2022-12-18T10:15:23;0.30;66.30
484;DHT22;228;48.922;12.198;2022-12-18T10:18:01;0.20;66.40
484;DHT22;228;48.922;12.198;2022-12-18T10:23:19;0.50;66.20
484;DHT22;228;48.922;12.198;2022-12-18T10:26:03;0.40;65.80
484;DHT22;228;48.922;12.198;2022-12-18T10:28:33;0.70;65.70
484;DHT22;228;48.922;12.198;2022-12-18T10:31:01;0.00;65.80
484;DHT22;228;48.922;12.198;2022-12-18T10:33:30;0.00;67.10
484;DHT22;228;48.922;12.198;2022-12-18T10:35:57;0.40;67.00
484;DHT22;228;48.922;12.198;2022-12-18T10:38:26;0.20;66.90
484;DHT22;228;48.922;12.198;2022-12-18T10:41:08;0.00;67.50
484;DHT22;228;48.922;12.198;2022-12-18T10:43:43;0.30;67.00
484;DHT22;228;48.922;12.198;2022-12-18T10:51:29;1.20;63.10
484;DHT22;228;48.922;12.198;2022-12-18T10:54:03;1.50;62.80
484;DHT22;228;48.922;12.198;2022-12-18T10:56:33;1.20;62.20
484;DHT22;228;48.922;12.198;2022-12-18T10:59:06;1.30;62.70
484;DHT22;228;48.922;12.198;2022-12-18T11:01:53;1.30;62.10
484;DHT22;228;48.922;12.198;2022-12-18T11:04:33;1.40;62.30
484;DHT22;228;48.922;12.198;2022-12-18T11:07:05;1.80;61.70
484;DHT22;228;48.922;12.198;2022-12-18T11:09:37;1.50;60.40
484;DHT22;228;48.922;12.198;2022-12-18T11:12:15;1.10;62.40
484;DHT22;228;48.922;12.198;2022-12-18T11:14:46;1.00;63.90
484;DHT22;228;48.922;12.198;2022-12-18T11:17:42;1.60;62.80
484;DHT22;228;48.922;12.198;2022-12-18T11:20:32;1.70;61.50
484;DHT22;228;48.922;12.198;2022-12-18T11:23:05;2.10;59.70
484;DHT22;228;48.922;12.198;2022-12-18T11:25:36;1.70;60.80
484;DHT22;228;48.922;12.198;2022-12-18T11:28:38;2.10;59.50
484;DHT22;228;48.922;12.198;2022-12-18T11:31:25;2.70;58.60
484;DHT22;228;48.922;12.198;2022-12-18T11:34:25;2.90;57.20
484;DHT22;228;48.922;12.198;2022-12-18T11:36:54;2.60;56.70
484;DHT22;228;48.922;12.198;2022-12-18T11:42:27;2.10;59.20
484;DHT22;228;48.922;12.198;2022-12-18T11:53:16;3.60;55.80
484;DHT22;228;48.922;12.198;2022-12-18T11:56:05;3.70;55.60
484;DHT22;228;48.922;12.198;2022-12-18T11:58:46;4.60;54.10
484;DHT22;228;48.922;12.198;2022-12-18T12:04:41;4.40;52.80
484;DHT22;228;48.922;12.198;2022-12-18T12:22:02;2.20;58.10
484;DHT22;228;48.922;12.198;2022-12-18T12:36:34;2.80;57.40
484;DHT22;228;48.922;12.198;2022-12-18T12:39:06;2.80;57.20
484;DHT22;228;48.922;12.198;2022-12-18T12:41:37;2.40;57.10
484;DHT22;228;48.922;12.198;2022-12-18T12:44:27;2.30;58.00
484;DHT22;228;48.922;12.198;2022-12-18T12:46:59;2.50;57.60
484;DHT22;228;48.922;12.198;2022-12-18T12:49:30;1.90;58.10
484;DHT22;228;48.922;12.198;2022-12-18T12:52:12;1.50;59.30
484;DHT22;228;48.922;12.198;2022-12-18T12:54:41;1.90;59.80
484;DHT22;228;48.922;12.198;2022-12-18T12:57:12;2.30;58.50
484;DHT22;228;48.922;12.198;2022-12-18T12:59:57;2.50;58.10
484;DHT22;228;48.922;12.198;2022-12-18T13:06:08;1.60;59.00
484;DHT22;228;48.922;12.198;2022-12-18T13:08:59;1.10;59.60
484;DHT22;228;48.922;12.198;2022-12-18T13:14:36;1.20;61.70
484;DHT22;228;48.922;12.198;2022-12-18T13:19:42;1.00;60.90
484;DHT22;228;48.922;12.198;2022-12-18T13:22:23;1.30;60.70
484;DHT22;228;48.922;12.198;2022-12-18T13:24:51;1.60;58.40
484;DHT22;228;48.922;12.198;2022-12-18T13:38:39;4.30;51.80
484;DHT22;228;48.922;12.198;2022-12-18T13:43:52;3.70;50.20
484;DHT22;228;48.922;12.198;2022-12-18T13:46:29;4.10;50.70
484;DHT22;228;48.922;12.198;2022-12-18T13:49:15;3.30;50.70
484;DHT22;228;48.922;12.198;2022-12-18T13:51:50;3.00;51.80
484;DHT22;228;48.922;12.198;2022-12-18T13:54:36;3.00;52.30
484;DHT22;228;48.922;12.198;2022-12-18T13:57:24;3.00;52.70
484;DHT22;228;48.922;12.198;2022-12-18T14:02:51;3.30;51.70
484;DHT22;228;48.922;12.198;2022-12-18T14:05:32;3.20;51.40
484;DHT22;228;48.922;12.198;2022-12-18T14:08:08;3.20;51.80
484;DHT22;228;48.922;12.198;2022-12-18T14:10:43;2.90;51.40
484;DHT22;228;48.922;12.198;2022-12-18T14:13:26;2.60;52.40
484;DHT22;228;48.922;12.198;2022-12-18T14:15:55;2.10;53.80
484;DHT22;228;48.922;12.198;2022-12-18T14:20:58;1.20;55.70
484;DHT22;228;48.922;12.198;2022-12-18T14:23:38;1.40;55.90
484;DHT22;228;48.922;12.198;2022-12-18T14:26:22;1.10;56.20
484;DHT22;228;48.922;12.198;2022-12-18T14:28:48;0.80;57.10
484;DHT22;228;48.922;12.198;2022-12-18T14:31:23;0.70;57.50
484;DHT22;228;48.922;12.198;2022-12-18T14:33:54;1.00;57.10
484;DHT22;228;48.922;12.198;2022-12-18T14:36:24;0.60;57.10
484;DHT22;228;48.922;12.198;2022-12-18T14:38:56;0.70;57.40
484;DHT22;228;48.922;12.198;2022-12-18T14:41:24;0.20;57.70
484;DHT22;228;48.922;12.198;2022-12-18T14:43:52;0.10;58.20
484;DHT22;228;48.922;12.198;2022-12-18T14:46:34;-0.10;59.20
484;DHT22;228;48.922;12.198;2022-12-18T14:49:26;-0.10;59.20
484;DHT22;228;48.922;12.198;2022-12-18T14:52:01;0.10;58.90
484;DHT22;228;48.922;12.198;2022-12-18T14:54:32;0.00;58.60
484;DHT22;228;48.922;12.198;2022-12-18T14:57:02;-0.40;59.20
484;DHT22;228;48.922;12.198;2022-12-18T14:59:30;-0.50;59.60
484;DHT22;228;48.922;12.198;2022-12-18T15:04:45;-1.20;61.00
484;DHT22;228;48.922;12.198;2022-12-18T15:07:15;-1.00;61.20
484;DHT22;228;48.922;12.198;2022-12-18T15:10:10;-1.00;60.70
484;DHT22;228;48.922;12.198;2022-12-18T15:12:46;-1.20;61.10
484;DHT22;228;48.922;12.198;2022-12-18T15:20:48;-1.30;62.40
484;DHT22;228;48.922;12.198;2022-12-18T15:26:02;-1.80;63.90
484;DHT22;228;48.922;12.198;2022-12-18T15:36:18;-1.20;62.80
484;DHT22;228;48.922;12.198;2022-12-18T15:38:52;-1.10;62.20
484;DHT22;228;48.922;12.198;2022-12-18T15:41:21;-1.10;61.60
484;DHT22;228;48.922;12.198;2022-12-18T15:43:49;-1.10;61.30
484;DHT22;228;48.922;12.198;2022-12-18T15:46:20;-1.10;61.50
484;DHT22;228;48.922;12.198;2022-12-18T15:48:50;-1.20;61.50
484;DHT22;228;48.922;12.198;2022-12-18T15:51:19;-1.30;62.10
484;DHT22;228;48.922;12.198;2022-12-18T15:53:53;-1.50;62.60
484;DHT22;228;48.922;12.198;2022-12-18T15:56:21;-1.60;63.20
484;DHT22;228;48.922;12.198;2022-12-18T15:59:20;-1.60;63.70
484;DHT22;228;48.922;12.198;2022-12-18T16:01:48;-1.60;63.30
484;DHT22;228;48.922;12.198;2022-12-18T16:04:17;-1.50;62.70
484;DHT22;228;48.922;12.198;2022-12-18T16:06:46;-1.60;62.40
484;DHT22;228;48.922;12.198;2022-12-18T16:09:13;-1.60;62.50
484;DHT22;228;48.922;12.198;2022-12-18T16:11:42;-1.60;62.60
484;DHT22;228;48.922;12.198;2022-12-18T16:16:50;-1.70;62.60
484;DHT22;228;48.922;12.198;2022-12-18T16:19:21;-1.70;62.60
484;DHT22;228;48.922;12.198;2022-12-18T16:21:49;-1.80;62.50
484;DHT22;228;48.922;12.198;2022-12-18T16:24:19;-1.80;63.10
484;DHT22;228;48.922;12.198;2022-12-18T16:26:57;-1.90;63.20
484;DHT22;228;48.922;12.198;2022-12-18T16:29:26;-1.90;63.20
484;DHT22;228;48.922;12.198;2022-12-18T16:31:58;-2.00;63.30
484;DHT22;228;48.922;12.198;2022-12-18T16:34:32;-1.90;63.20
484;DHT22;228;48.922;12.198;2022-12-18T16:37:05;-1.90;63.20
484;DHT22;228;48.922;12.198;2022-12-18T16:39:36;-1.90;63.00
484;DHT22;228;48.922;12.198;2022-12-18T16:42:21;-1.90;63.10
484;DHT22;228;48.922;12.198;2022-12-18T16:44:49;-1.90;62.90
484;DHT22;228;48.922;12.198;2022-12-18T16:47:16;-2.10;63.40
484;DHT22;228;48.922;12.198;2022-12-18T16:49:43;-2.10;63.80
484;DHT22;228;48.922;12.198;2022-12-18T16:52:13;-2.10;63.80
484;DHT22;228;48.922;12.198;2022-12-18T16:54:39;-2.10;64.10
484;DHT22;228;48.922;12.198;2022-12-18T16:57:05;-2.20;64.00
484;DHT22;228;48.922;12.198;2022-12-18T16:59:31;-2.20;64.20
484;DHT22;228;48.922;12.198;2022-12-18T17:01:57;-2.20;64.30
484;DHT22;228;48.922;12.198;2022-12-18T17:04:24;-2.20;64.10
484;DHT22;228;48.922;12.198;2022-12-18T17:06:50;-2.20;63.50
484;DHT22;228;48.922;12.198;2022-12-18T17:09:20;-2.20;63.20
484;DHT22;228;48.922;12.198;2022-12-18T17:11:53;-2.30;63.00
484;DHT22;228;48.922;12.198;2022-12-18T17:14:22;-2.40;63.10
484;DHT22;228;48.922;12.198;2022-12-18T17:16:51;-2.50;63.60
484;DHT22;228;48.922;12.198;2022-12-18T17:19:18;-2.50;63.50
484;DHT22;228;48.922;12.198;2022-12-18T17:21:47;-2.40;63.50
484;DHT22;228;48.922;12.198;2022-12-18T17:24:14;-2.40;63.50
484;DHT22;228;48.922;12.198;2022-12-18T17:26:41;-2.50;63.10
484;DHT22;228;48.922;12.198;2022-12-18T17:29:11;-2.50;62.90
484;DHT22;228;48.922;12.198;2022-12-18T17:31:39;-2.60;62.60
484;DHT22;228;48.922;12.198;2022-12-18T17:34:05;-2.60;61.90
484;DHT22;228;48.922;12.198;2022-12-18T17:36:31;-2.70;61.50
484;DHT22;228;48.922;12.198;2022-12-18T17:39:01;-2.70;61.50
484;DHT22;228;48.922;12.198;2022-12-18T17:44:13;-2.80;61.80
484;DHT22;228;48.922;12.198;2022-12-18T17:46:39;-2.90;62.10
484;DHT22;228;48.922;12.198;2022-12-18T17:49:06;-3.00;62.20
484;DHT22;228;48.922;12.198;2022-12-18T17:51:32;-3.10;62.50
484;DHT22;228;48.922;12.198;2022-12-18T17:53:58;-3.00;62.50
484;DHT22;228;48.922;12.198;2022-12-18T17:56:25;-3.10;62.60
484;DHT22;228;48.922;12.198;2022-12-18T17:58:51;-3.10;62.50
484;DHT22;228;48.922;12.198;2022-12-18T18:01:23;-3.00;62.30
484;DHT22;228;48.922;12.198;2022-12-18T18:03:51;-3.00;62.00
484;DHT22;228;48.922;12.198;2022-12-18T18:06:18;-3.10;61.80
484;DHT22;228;48.922;12.198;2022-12-18T18:08:44;-3.20;61.60
484;DHT22;228;48.922;12.198;2022-12-18T18:11:14;-3.20;62.20
484;DHT22;228;48.922;12.198;2022-12-18T18:14:00;-3.30;63.10
484;DHT22;228;48.922;12.198;2022-12-18T18:16:32;-3.30;63.20
484;DHT22;228;48.922;12.198;2022-12-18T18:19:03;-3.30;63.90
484;DHT22;228;48.922;12.198;2022-12-18T18:21:32;-3.30;64.20
484;DHT22;228;48.922;12.198;2022-12-18T18:24:00;-3.30;64.30
484;DHT22;228;48.922;12.198;2022-12-18T18:26:29;-3.30;65.40
484;DHT22;228;48.922;12.198;2022-12-18T18:28:57;-3.40;66.00
484;DHT22;228;48.922;12.198;2022-12-18T18:31:25;-3.50;67.10
484;DHT22;228;48.922;12.198;2022-12-18T18:33:52;-3.60;67.20
484;DHT22;228;48.922;12.198;2022-12-18T18:36:18;-3.90;67.60
484;DHT22;228;48.922;12.198;2022-12-18T18:38:44;-3.90;68.50
484;DHT22;228;48.922;12.198;2022-12-18T18:41:11;-3.90;68.50
484;DHT22;228;48.922;12.198;2022-12-18T18:43:37;-3.90;68.00
484;DHT22;228;48.922;12.198;2022-12-18T18:46:04;-3.80;67.60
484;DHT22;228;48.922;12.198;2022-12-18T18:48:33;-3.60;66.70
484;DHT22;228;48.922;12.198;2022-12-18T18:51:06;-3.50;66.10
484;DHT22;228;48.922;12.198;2022-12-18T18:53:39;-3.50;66.10
484;DHT22;228;48.922;12.198;2022-12-18T18:56:08;-3.40;65.70
484;DHT22;228;48.922;12.198;2022-12-18T18:58:35;-3.40;65.30
484;DHT22;228;48.922;12.198;2022-12-18T19:01:05;-3.50;65.80
484;DHT22;228;48.922;12.198;2022-12-18T19:03:32;-3.40;64.90